オウル の空港の天気 - METARとTAF

オウル空港 ( EFOU / OUL ) - フィンランド Oulunsalo
飛行場実況気象(Metar)
観測時間01/19 11:20 EET (01/19 09:20 UTC)
風向・風速南東 2m/s
視程1900m
天気現象弱い雪
全天を覆う雲 雲底高度 760m
気温-16℃
湿度85%
気圧999hPa
METAREFOU 190920Z AUTO 14004KT 1900 -SN OVC025/// M16/M18 Q0999
過去の天気等 Google飛行場航空写真 Wunderground天気予報

過去48時間のMETAR

飛行場予報(TAF)
発表時間: 1/19 10:25 EET (1/19 08:25 UTC)
予報対象時間: 19日11時 EET ~ 20日11時 EET
風向・風速東南東 3m/s
視程8000m
天気現象弱い雪
全天の8割程度の雲 雲底高度 460m
19日11時 EET ~ 19日17時 EET に一時的に
視程1200m
天気現象弱い雪
全天の8割程度の雲 雲底高度 90m
19日17時 EET ~ 20日2時 EET に一時的に
視程1500m
天気現象弱い雪
全天の8割程度の雲 雲底高度 120m
TAF EFOU 190825Z 1909/2009 12005KT 8000 -SN BKN015
TEMPO 1909/1915 1200 -SN BKN003
TEMPO 1915/1924 1500 -SN BKN004